createdAt,value
2018-12-05T00:00:49.672Z,80.27
2018-12-05T00:03:20.258Z,77.60
2018-12-05T00:05:50.896Z,76.73
2018-12-05T00:08:21.295Z,79.53
2018-12-05T00:10:52.031Z,80.47
2018-12-05T00:13:22.518Z,81.47
2018-12-05T00:15:53.183Z,87.13
2018-12-05T00:18:23.819Z,84.93
2018-12-05T00:20:54.626Z,84.57
2018-12-05T00:23:25.146Z,88.37
2018-12-05T00:25:55.996Z,84.80
2018-12-05T00:28:27.029Z,84.60
2018-12-05T00:30:57.852Z,86.93
2018-12-05T00:33:28.465Z,86.23
2018-12-05T00:35:59.419Z,82.67
2018-12-05T00:38:30.064Z,82.80
2018-12-05T00:41:00.962Z,83.37
2018-12-05T00:43:31.449Z,85.93
2018-12-05T00:46:01.933Z,84.27
2018-12-05T00:48:32.606Z,82.47
2018-12-05T00:51:02.978Z,83.43
2018-12-05T00:53:34.521Z,84.27
2018-12-05T00:56:05.835Z,84.57
2018-12-05T00:58:36.419Z,84.43
2018-12-05T01:01:07.164Z,86.13
2018-12-05T01:03:38.030Z,82.13
2018-12-05T01:06:08.607Z,85.17
2018-12-05T01:08:39.444Z,80.63
2018-12-05T01:11:10.369Z,86.17
2018-12-05T01:13:41.127Z,88.53
2018-12-05T01:16:11.822Z,87.37
2018-12-05T01:18:42.340Z,83.30
2018-12-05T01:21:12.984Z,82.73
2018-12-05T01:23:43.417Z,81.00
2018-12-05T01:26:13.966Z,77.87
2018-12-05T01:28:44.796Z,81.17
2018-12-05T01:31:15.680Z,78.40
2018-12-05T01:33:46.325Z,80.17
2018-12-05T01:36:17.132Z,77.37
2018-12-05T01:38:48.166Z,79.60
2018-12-05T01:41:18.675Z,78.63
2018-12-05T01:43:49.038Z,75.27
2018-12-05T01:46:19.836Z,77.37
2018-12-05T01:48:50.654Z,79.77
2018-12-05T01:51:21.114Z,81.23
2018-12-05T01:53:51.750Z,79.07
2018-12-05T01:56:22.413Z,80.07
2018-12-05T01:58:53.243Z,79.70
2018-12-05T02:01:24.281Z,79.90
2018-12-05T02:03:55.360Z,77.33
2018-12-05T02:06:26.301Z,78.03
2018-12-05T02:08:56.785Z,76.50
2018-12-05T02:11:27.951Z,74.70
2018-12-05T02:13:59.019Z,73.50
2018-12-05T02:16:29.520Z,73.30
2018-12-05T02:19:00.062Z,71.60
2018-12-05T02:21:30.874Z,71.90
2018-12-05T02:24:01.624Z,73.50
2018-12-05T02:26:32.380Z,71.93
2018-12-05T02:29:03.116Z,72.40
2018-12-05T02:31:34.179Z,72.33
2018-12-05T02:34:04.653Z,76.33
2018-12-05T02:36:35.258Z,77.00
2018-12-05T02:39:08.622Z,74.83
2018-12-05T02:41:39.550Z,76.60
2018-12-05T02:44:10.367Z,74.53
2018-12-05T02:46:41.252Z,67.47
2018-12-05T02:49:11.940Z,71.63
2018-12-05T02:51:42.708Z,71.33
2018-12-05T02:54:13.602Z,67.90
2018-12-05T02:56:44.460Z,69.57
2018-12-05T02:59:15.129Z,72.33
2018-12-05T03:01:45.866Z,66.83
2018-12-05T03:04:17.057Z,70.50
2018-12-05T03:06:47.845Z,70.07
2018-12-05T03:09:18.444Z,71.00
2018-12-05T03:11:49.369Z,72.77
2018-12-05T03:14:19.702Z,93.40
2018-12-05T03:16:50.224Z,79.20
2018-12-05T03:19:20.724Z,75.43
2018-12-05T03:21:51.475Z,74.07
2018-12-05T03:24:21.888Z,79.13
2018-12-05T03:26:53.026Z,80.70
2018-12-05T03:29:23.830Z,89.77
2018-12-05T03:31:54.483Z,78.60
2018-12-05T03:34:24.889Z,100.50
2018-12-05T03:36:55.773Z,82.60
2018-12-05T03:39:26.705Z,81.70
2018-12-05T03:41:57.352Z,83.90
2018-12-05T03:44:27.966Z,91.03
2018-12-05T03:46:58.553Z,100.27
2018-12-05T03:49:30.389Z,94.10
2018-12-05T03:52:01.010Z,92.97
2018-12-05T03:54:31.718Z,97.80
2018-12-05T03:57:02.278Z,88.00
2018-12-05T03:59:33.285Z,83.83
2018-12-05T04:02:03.877Z,82.93
2018-12-05T04:04:34.719Z,83.67
2018-12-05T04:07:05.750Z,84.10
2018-12-05T04:09:36.354Z,86.30
2018-12-05T04:12:06.909Z,84.83
2018-12-05T04:14:37.784Z,81.73
2018-12-05T04:17:08.538Z,80.93
2018-12-05T04:19:38.992Z,81.57
2018-12-05T04:22:09.691Z,76.07
2018-12-05T04:24:40.488Z,76.20
2018-12-05T04:27:11.018Z,75.83
2018-12-05T04:29:41.646Z,76.80
2018-12-05T04:32:12.718Z,74.70
2018-12-05T04:34:43.572Z,76.00
2018-12-05T04:37:14.009Z,77.60
2018-12-05T04:39:44.549Z,73.40
2018-12-05T04:42:15.057Z,74.27
2018-12-05T04:44:45.699Z,82.47
2018-12-05T04:47:16.147Z,86.00
2018-12-05T04:49:46.752Z,89.83
2018-12-05T04:52:17.627Z,87.53
2018-12-05T04:54:48.333Z,82.30
2018-12-05T04:57:19.165Z,87.20
2018-12-05T04:59:49.876Z,85.67
2018-12-05T05:02:20.505Z,83.77
2018-12-05T05:04:51.348Z,85.97
2018-12-05T05:07:21.810Z,81.57
2018-12-05T05:09:52.940Z,90.63
2018-12-05T05:12:23.596Z,85.63
2018-12-05T05:14:54.102Z,85.13
2018-12-05T05:17:24.862Z,83.90
2018-12-05T05:19:55.511Z,84.40
2018-12-05T05:22:26.280Z,80.20
2018-12-05T05:24:56.953Z,82.33
2018-12-05T05:27:27.462Z,84.10
2018-12-05T05:29:57.945Z,81.47
2018-12-05T05:32:28.462Z,80.87
2018-12-05T05:34:59.423Z,80.00
2018-12-05T05:37:30.398Z,82.43
2018-12-05T05:40:01.536Z,82.60
2018-12-05T05:42:32.414Z,81.93
2018-12-05T05:45:03.110Z,79.40
2018-12-05T05:47:33.547Z,78.03
2018-12-05T05:50:05.740Z,77.57
2018-12-05T05:52:36.622Z,78.43
2018-12-05T05:55:07.335Z,78.63
2018-12-05T05:57:38.545Z,76.00
2018-12-05T06:00:10.202Z,76.40
2018-12-05T06:02:40.835Z,81.50
2018-12-05T06:05:11.889Z,79.07
2018-12-05T06:07:43.200Z,80.47
2018-12-05T06:10:13.894Z,81.57
2018-12-05T06:12:44.649Z,76.30
2018-12-05T06:15:15.372Z,93.83
2018-12-05T06:17:46.196Z,101.57
2018-12-05T06:20:17.019Z,101.23
2018-12-05T06:22:48.135Z,100.63
2018-12-05T06:25:19.007Z,103.43
2018-12-05T06:27:49.860Z,116.43
2018-12-05T06:30:20.845Z,124.73
2018-12-05T06:35:52.460Z,129.57
2018-12-05T06:38:24.433Z,124.13
2018-12-05T06:40:55.102Z,115.03
2018-12-05T06:43:25.771Z,110.13
2018-12-05T06:45:56.399Z,110.47
2018-12-05T06:48:26.881Z,115.70
2018-12-05T06:50:57.494Z,118.50
2018-12-05T06:53:28.375Z,141.23
2018-12-05T06:55:59.118Z,147.17
2018-12-05T06:58:29.625Z,133.00
2018-12-05T07:01:00.280Z,129.23
2018-12-05T07:03:31.261Z,128.57
2018-12-05T07:06:02.033Z,143.07
2018-12-05T07:08:33.472Z,126.90
2018-12-05T07:11:04.879Z,124.73
2018-12-05T07:13:35.790Z,126.63
2018-12-05T07:16:06.327Z,131.03
2018-12-05T07:18:36.941Z,125.57
2018-12-05T07:21:07.822Z,120.03
2018-12-05T07:23:38.496Z,98.40
2018-12-05T07:26:09.281Z,122.23
2018-12-05T07:28:39.644Z,140.10
2018-12-05T07:31:10.351Z,136.43
2018-12-05T07:33:41.035Z,130.87
2018-12-05T07:36:11.768Z,113.20
2018-12-05T07:38:42.731Z,109.03
2018-12-05T07:41:13.524Z,114.00
2018-12-05T07:43:44.385Z,133.70
2018-12-05T07:46:15.057Z,129.27
2018-12-05T07:48:46.005Z,128.73
2018-12-05T07:51:16.689Z,137.43
2018-12-05T07:53:47.340Z,139.70
2018-12-05T07:56:17.810Z,143.20
2018-12-05T07:58:48.392Z,140.57
2018-12-05T08:01:18.921Z,142.33
2018-12-05T08:03:50.040Z,130.93
2018-12-05T08:06:20.634Z,122.87
2018-12-05T08:08:51.184Z,119.57
2018-12-05T08:11:21.937Z,108.33
2018-12-05T08:13:52.617Z,88.43
2018-12-05T08:16:23.581Z,97.77
2018-12-05T08:18:54.180Z,95.43
2018-12-05T08:21:24.955Z,48.50
2018-12-05T08:23:55.690Z,44.43
2018-12-05T08:26:26.371Z,44.37
2018-12-05T08:28:57.066Z,43.57
2018-12-05T08:31:27.585Z,41.77
2018-12-05T08:33:58.247Z,42.13
2018-12-05T08:36:29.071Z,43.13
2018-12-05T08:38:59.850Z,41.87
2018-12-05T08:41:30.397Z,41.57
2018-12-05T08:44:01.006Z,39.80
2018-12-05T08:46:31.605Z,43.07
2018-12-05T08:49:02.292Z,44.10
2018-12-05T08:51:32.928Z,44.67
2018-12-05T08:54:03.709Z,45.23
2018-12-05T08:56:34.143Z,43.17
2018-12-05T08:59:05.605Z,41.63
2018-12-05T09:01:36.144Z,40.23
2018-12-05T09:04:06.789Z,41.73
2018-12-05T09:06:37.402Z,36.77
2018-12-05T09:09:09.091Z,35.50
2018-12-05T09:11:39.831Z,32.37
2018-12-05T09:14:10.383Z,32.33
2018-12-05T09:16:40.902Z,33.50
2018-12-05T09:19:11.797Z,33.60
2018-12-05T09:21:42.354Z,32.90
2018-12-05T09:24:13.033Z,35.20
2018-12-05T09:26:43.705Z,34.50
2018-12-05T09:29:14.201Z,35.10
2018-12-05T09:31:44.619Z,33.20
2018-12-05T09:34:15.486Z,34.73
2018-12-05T09:36:46.043Z,38.30
2018-12-05T09:39:16.594Z,41.70
2018-12-05T09:41:47.257Z,40.00
2018-12-05T09:44:20.473Z,39.93
2018-12-05T09:46:51.384Z,47.10
2018-12-05T09:49:22.063Z,44.60
2018-12-05T09:51:52.585Z,37.17
2018-12-05T09:54:23.082Z,37.40
2018-12-05T09:56:53.937Z,34.37
2018-12-05T09:59:24.434Z,33.27
2018-12-05T10:01:55.062Z,40.00
2018-12-05T10:04:25.822Z,36.63
2018-12-05T10:06:56.341Z,36.40
2018-12-05T10:09:26.804Z,36.70
2018-12-05T10:11:58.194Z,37.97
2018-12-05T10:14:28.694Z,37.63
2018-12-05T10:16:59.257Z,36.37
2018-12-05T10:19:30.106Z,37.37
2018-12-05T10:22:00.622Z,37.87
2018-12-05T10:24:31.052Z,39.43
2018-12-05T10:27:01.746Z,41.03
2018-12-05T10:29:32.216Z,40.67
2018-12-05T10:32:02.778Z,42.37
2018-12-05T10:34:33.311Z,42.03
2018-12-05T10:37:03.765Z,41.60
2018-12-05T10:39:34.211Z,42.77
2018-12-05T10:42:04.701Z,43.67
2018-12-05T10:44:35.592Z,41.23
2018-12-05T10:47:06.435Z,38.90
2018-12-05T10:49:37.025Z,36.80
2018-12-05T10:52:07.654Z,36.73
2018-12-05T10:54:38.630Z,37.47
2018-12-05T10:57:09.408Z,38.57
2018-12-05T10:59:39.899Z,39.57
2018-12-05T11:02:15.679Z,39.67
2018-12-05T11:04:51.495Z,39.43
2018-12-05T11:07:27.396Z,40.43
2018-12-05T11:10:02.999Z,42.37
2018-12-05T11:12:39.409Z,42.63
2018-12-05T11:15:14.852Z,40.97
2018-12-05T11:18:48.957Z,41.13
2018-12-05T11:21:24.911Z,40.17
2018-12-05T11:24:00.396Z,41.50
2018-12-05T11:26:34.457Z,38.47
2018-12-05T11:29:05.157Z,35.67
2018-12-05T11:31:35.726Z,33.77
2018-12-05T11:34:06.678Z,35.53
2018-12-05T11:36:37.457Z,36.37
2018-12-05T11:39:09.274Z,34.17
2018-12-05T11:41:40.108Z,34.60
2018-12-05T11:44:10.853Z,32.93
2018-12-05T11:46:41.905Z,32.70
2018-12-05T11:49:12.570Z,33.17
2018-12-05T11:51:44.471Z,34.70
2018-12-05T11:54:15.283Z,35.47
2018-12-05T11:56:46.445Z,35.27
2018-12-05T11:59:16.986Z,37.73
2018-12-05T12:01:47.453Z,40.10
2018-12-05T12:04:18.437Z,43.57
2018-12-05T12:06:49.143Z,37.67
2018-12-05T12:09:19.874Z,15.83
2018-12-05T12:11:50.622Z,15.37
2018-12-05T12:14:21.023Z,24.70
2018-12-05T12:16:51.668Z,13.43
2018-12-05T12:19:22.194Z,13.13
2018-12-05T12:21:52.781Z,11.20
2018-12-05T12:24:23.510Z,23.23
2018-12-05T12:26:54.532Z,15.53
2018-12-05T12:29:25.209Z,12.37
2018-12-05T12:31:55.710Z,14.80
2018-12-05T12:34:26.411Z,16.37
2018-12-05T12:37:03.655Z,16.27
2018-12-05T12:39:34.323Z,16.97
2018-12-05T12:42:05.048Z,18.70
2018-12-05T12:44:35.821Z,22.97
2018-12-05T12:47:05.936Z,19.37
2018-12-05T12:49:36.569Z,18.50
2018-12-05T12:52:07.301Z,20.17
2018-12-05T12:54:37.945Z,20.27
2018-12-05T12:57:08.916Z,21.63
2018-12-05T12:59:40.540Z,21.90
2018-12-05T13:02:11.299Z,25.00
2018-12-05T13:04:42.050Z,13.67
2018-12-05T13:07:13.126Z,17.30
2018-12-05T13:09:43.646Z,10.13
2018-12-05T13:12:18.259Z,9.47
2018-12-05T13:14:50.169Z,8.03
2018-12-05T13:17:20.941Z,9.33
2018-12-05T13:19:51.427Z,10.20
2018-12-05T13:22:22.220Z,10.73
2018-12-05T13:24:52.956Z,18.20
2018-12-05T13:27:23.439Z,20.20
2018-12-05T13:29:54.317Z,19.10
2018-12-05T13:32:25.464Z,9.80
2018-12-05T13:34:55.997Z,7.53
2018-12-05T13:37:26.594Z,5.90
2018-12-05T13:39:57.509Z,7.73
2018-12-05T13:42:27.885Z,15.03
2018-12-05T13:44:58.878Z,13.57
2018-12-05T13:47:29.840Z,9.43
2018-12-05T13:50:00.379Z,10.13
2018-12-05T13:52:31.118Z,10.17
2018-12-05T13:55:01.628Z,10.73
2018-12-05T13:57:32.315Z,12.13
2018-12-05T14:00:02.749Z,11.90
2018-12-05T14:02:33.360Z,12.93
2018-12-05T14:05:04.390Z,14.73
2018-12-05T14:07:34.941Z,14.97
2018-12-05T14:10:07.282Z,10.37
2018-12-05T14:12:40.992Z,10.77
2018-12-05T14:15:12.274Z,9.97
2018-12-05T14:17:42.743Z,12.03
2018-12-05T14:20:13.395Z,5.93
2018-12-05T14:22:43.998Z,7.40
2018-12-05T14:25:14.925Z,16.33
2018-12-05T14:27:45.647Z,20.33
2018-12-05T14:30:16.324Z,18.93
2018-12-05T14:32:47.473Z,15.27
2018-12-05T14:35:17.815Z,14.30
2018-12-05T14:37:48.257Z,12.03
2018-12-05T14:40:18.848Z,9.03
2018-12-05T14:42:49.534Z,7.33
2018-12-05T14:45:20.234Z,7.10
2018-12-05T14:47:50.901Z,5.70
2018-12-05T14:50:21.473Z,3.87
2018-12-05T14:52:52.092Z,3.67
2018-12-05T14:55:22.826Z,4.00
2018-12-05T14:57:53.421Z,3.40
2018-12-05T15:00:24.558Z,3.73
2018-12-05T15:02:55.235Z,3.47
2018-12-05T15:05:26.042Z,3.57
2018-12-05T15:07:56.896Z,3.40
2018-12-05T15:10:27.870Z,3.40
2018-12-05T15:12:58.826Z,3.73
2018-12-05T15:15:29.615Z,3.67
2018-12-05T15:18:00.295Z,5.20
2018-12-05T15:20:30.995Z,9.87
2018-12-05T15:23:01.687Z,6.90
2018-12-05T15:25:32.449Z,9.70
2018-12-05T15:28:09.290Z,8.07
2018-12-05T15:30:40.263Z,18.40
2018-12-05T15:33:10.748Z,14.03
2018-12-05T15:35:41.207Z,7.43
2018-12-05T15:38:11.938Z,8.60
2018-12-05T15:40:43.722Z,7.93
2018-12-05T15:43:14.433Z,7.27
2018-12-05T15:45:45.565Z,5.20
2018-12-05T15:48:16.173Z,7.00
2018-12-05T15:50:47.647Z,6.23
2018-12-05T15:53:18.795Z,5.53
2018-12-05T15:55:49.371Z,4.50
2018-12-05T15:58:20.002Z,4.30
2018-12-05T16:00:50.698Z,5.50
2018-12-05T16:03:21.078Z,6.10
2018-12-05T16:05:51.676Z,4.00
2018-12-05T16:08:22.753Z,11.20
2018-12-05T16:10:53.187Z,4.40
2018-12-05T16:13:24.417Z,3.37
2018-12-05T16:15:54.878Z,3.80
2018-12-05T16:18:25.903Z,5.50
2018-12-05T16:20:56.593Z,3.80
2018-12-05T16:23:27.539Z,4.73
2018-12-05T16:25:58.392Z,6.30
2018-12-05T16:28:29.103Z,4.60
2018-12-05T16:30:59.535Z,4.07
2018-12-05T16:33:30.194Z,7.90
2018-12-05T16:36:01.159Z,8.43
2018-12-05T16:38:31.861Z,14.33
2018-12-05T16:41:02.605Z,10.80
2018-12-05T16:43:33.318Z,11.23
2018-12-05T16:46:04.177Z,11.37
2018-12-05T16:48:34.694Z,7.90
2018-12-05T16:51:05.319Z,11.10
2018-12-05T16:53:36.096Z,19.33
2018-12-05T16:56:06.952Z,11.13
2018-12-05T16:58:37.775Z,12.30
2018-12-05T17:01:08.386Z,11.60
2018-12-05T17:03:38.773Z,10.40
2018-12-05T17:06:10.722Z,9.90
2018-12-05T17:08:41.424Z,9.20
2018-12-05T17:11:12.205Z,10.07
2018-12-05T17:13:43.302Z,8.27
2018-12-05T17:16:18.043Z,6.50
2018-12-05T17:18:46.814Z,7.80
2018-12-05T17:21:17.552Z,7.83
2018-12-05T17:23:48.983Z,8.60
2018-12-05T17:26:19.658Z,9.30
2018-12-05T17:28:50.205Z,9.30
2018-12-05T17:31:21.086Z,8.80
2018-12-05T17:33:51.740Z,8.47
2018-12-05T17:36:22.397Z,8.33
2018-12-05T17:38:53.408Z,8.77
2018-12-05T17:41:24.189Z,9.67
2018-12-05T17:43:54.850Z,10.03
2018-12-05T17:46:25.308Z,8.60
2018-12-05T17:48:56.083Z,7.70
2018-12-05T17:51:26.952Z,7.50
2018-12-05T17:53:57.498Z,7.77
2018-12-05T17:56:28.198Z,5.77
2018-12-05T17:58:59.049Z,5.50
2018-12-05T18:01:32.535Z,6.03
2018-12-05T18:04:03.378Z,7.03
2018-12-05T18:06:33.952Z,6.87
2018-12-05T18:09:06.236Z,7.47
2018-12-05T18:11:37.416Z,5.50
2018-12-05T18:14:08.188Z,5.80
2018-12-05T18:16:38.755Z,5.70
2018-12-05T18:19:09.448Z,5.93
2018-12-05T18:21:40.493Z,6.70
2018-12-05T18:24:11.031Z,7.83
2018-12-05T18:26:41.699Z,6.93
2018-12-05T18:29:12.488Z,7.27
2018-12-05T18:31:44.154Z,6.13
2018-12-05T18:34:14.872Z,5.67
2018-12-05T18:36:46.694Z,6.10
2018-12-05T18:39:18.906Z,5.27
2018-12-05T18:41:49.494Z,5.10
2018-12-05T18:44:20.477Z,5.33
2018-12-05T18:46:51.737Z,5.60
2018-12-05T18:49:22.832Z,5.80
2018-12-05T18:51:54.684Z,5.50
2018-12-05T18:54:25.149Z,5.93
2018-12-05T18:56:55.668Z,5.53
2018-12-05T18:59:26.378Z,6.20
2018-12-05T19:01:56.906Z,6.23
2018-12-05T19:04:27.776Z,5.57
2018-12-05T19:06:58.445Z,4.87
2018-12-05T19:09:29.220Z,5.20
2018-12-05T19:12:00.250Z,5.10
2018-12-05T19:14:37.222Z,4.77
2018-12-05T19:17:07.724Z,5.03
2018-12-05T19:19:38.798Z,6.90
2018-12-05T19:22:09.688Z,7.27
2018-12-05T19:24:40.327Z,7.30
2018-12-05T19:27:11.126Z,6.60
2018-12-05T19:29:41.948Z,6.53
2018-12-05T19:32:13.042Z,10.67
2018-12-05T19:34:43.423Z,8.33
2018-12-05T19:37:14.136Z,7.83
2018-12-05T19:39:45.017Z,6.77
2018-12-05T19:42:16.150Z,5.97
2018-12-05T19:44:47.112Z,5.70
2018-12-05T19:47:19.312Z,5.73
2018-12-05T19:49:49.961Z,5.90
2018-12-05T19:52:20.773Z,6.10
2018-12-05T19:54:51.670Z,5.43
2018-12-05T19:57:22.169Z,13.20
2018-12-05T19:59:52.842Z,6.70
2018-12-05T20:02:23.431Z,4.77
2018-12-05T20:04:54.068Z,4.00
2018-12-05T20:07:24.707Z,4.23
2018-12-05T20:09:55.442Z,3.97
2018-12-05T20:12:25.990Z,4.07
2018-12-05T20:14:56.875Z,4.17
2018-12-05T20:17:27.364Z,3.77
2018-12-05T20:19:58.294Z,3.97
2018-12-05T20:22:29.460Z,3.87
2018-12-05T20:25:00.232Z,4.47
2018-12-05T20:27:30.991Z,5.00
2018-12-05T20:30:01.619Z,4.97
2018-12-05T20:32:32.106Z,4.10
2018-12-05T20:35:02.698Z,4.00
2018-12-05T20:37:33.294Z,4.43
2018-12-05T20:40:04.308Z,5.87
2018-12-05T20:42:34.984Z,6.40
2018-12-05T20:45:06.474Z,4.80
2018-12-05T20:47:37.345Z,4.23
2018-12-05T20:50:08.240Z,4.87
2018-12-05T20:52:38.935Z,4.63
2018-12-05T20:55:09.780Z,4.83
2018-12-05T20:57:40.548Z,4.77
2018-12-05T21:00:11.242Z,4.30
2018-12-05T21:02:42.892Z,4.10
2018-12-05T21:05:13.346Z,3.80
2018-12-05T21:07:44.026Z,4.63
2018-12-05T21:10:14.777Z,3.93
2018-12-05T21:12:45.481Z,5.07
2018-12-05T21:15:16.165Z,5.07
2018-12-05T21:17:46.661Z,4.10
2018-12-05T21:20:17.399Z,4.63
2018-12-05T21:22:47.954Z,4.37
2018-12-05T21:25:18.463Z,3.97
2018-12-05T21:27:49.035Z,4.80
2018-12-05T21:30:19.567Z,4.70
2018-12-05T21:32:50.299Z,4.90
2018-12-05T21:35:20.709Z,6.40
2018-12-05T21:37:51.659Z,8.63
2018-12-05T21:40:22.445Z,8.40
2018-12-05T21:42:52.899Z,5.13
2018-12-05T21:45:23.717Z,5.10
2018-12-05T21:47:55.169Z,4.87
2018-12-05T21:50:25.837Z,4.43
2018-12-05T21:52:56.501Z,4.70
2018-12-05T21:55:27.171Z,4.10
2018-12-05T21:57:57.720Z,4.73
2018-12-05T22:00:28.858Z,4.97
2018-12-05T22:02:59.827Z,4.50
2018-12-05T22:05:30.507Z,3.93
2018-12-05T22:08:01.106Z,4.17
2018-12-05T22:10:31.489Z,3.93
2018-12-05T22:13:02.274Z,3.60
2018-12-05T22:15:32.628Z,4.17
2018-12-05T22:18:03.353Z,3.40
2018-12-05T22:20:33.769Z,4.07
2018-12-05T22:23:04.478Z,3.93
2018-12-05T22:25:35.018Z,3.97
2018-12-05T22:28:05.708Z,3.97
2018-12-05T22:30:36.284Z,4.00
2018-12-05T22:33:06.954Z,3.73
2018-12-05T22:35:37.460Z,3.83
2018-12-05T22:38:07.957Z,4.27
2018-12-05T22:40:38.519Z,3.67
2018-12-05T22:43:09.148Z,3.73
2018-12-05T22:45:40.416Z,3.50
2018-12-05T22:48:10.804Z,3.50
2018-12-05T22:50:41.436Z,3.90
2018-12-05T22:53:12.706Z,4.10
2018-12-05T22:55:43.323Z,3.87
2018-12-05T22:58:13.863Z,3.67
2018-12-05T23:00:49.333Z,4.20
2018-12-05T23:03:19.972Z,3.87
2018-12-05T23:05:50.504Z,4.23
2018-12-05T23:08:24.559Z,3.93
2018-12-05T23:10:55.449Z,4.27
2018-12-05T23:13:26.137Z,3.80
2018-12-05T23:15:56.945Z,5.77
2018-12-05T23:18:27.715Z,7.53
2018-12-05T23:20:58.502Z,8.87
2018-12-05T23:23:29.946Z,6.90
2018-12-05T23:26:00.632Z,5.13
2018-12-05T23:28:31.446Z,5.53
2018-12-05T23:31:02.591Z,4.90
2018-12-05T23:33:33.082Z,4.20
2018-12-05T23:36:03.565Z,4.10
2018-12-05T23:38:34.531Z,4.80
2018-12-05T23:41:05.446Z,5.07
2018-12-05T23:43:36.292Z,4.90
2018-12-05T23:46:07.092Z,6.27
2018-12-05T23:48:37.792Z,4.77
2018-12-05T23:51:08.574Z,4.17
2018-12-05T23:53:39.287Z,4.40
2018-12-05T23:56:09.719Z,3.80
2018-12-05T23:58:40.279Z,4.30
